createdAt,value
2019-03-09T00:01:22.454Z,7.60
2019-03-09T00:03:51.176Z,7.60
2019-03-09T00:06:20.271Z,7.60
2019-03-09T00:08:49.007Z,7.70
2019-03-09T00:11:17.760Z,7.70
2019-03-09T00:13:46.488Z,7.90
2019-03-09T00:16:15.240Z,8.00
2019-03-09T00:18:43.983Z,7.90
2019-03-09T00:21:12.692Z,8.00
2019-03-09T00:24:01.191Z,8.00
2019-03-09T00:26:52.359Z,8.10
2019-03-09T00:29:29.444Z,8.20
2019-03-09T00:32:04.661Z,8.10
2019-03-09T00:34:33.402Z,8.10
2019-03-09T00:37:02.151Z,8.20
2019-03-09T00:39:30.898Z,8.20
2019-03-09T00:41:59.640Z,8.20
2019-03-09T00:44:28.377Z,8.30
2019-03-09T00:46:57.139Z,8.30
2019-03-09T00:49:26.129Z,8.40
2019-03-09T00:51:54.846Z,8.40
2019-03-09T00:54:23.589Z,8.60
2019-03-09T00:56:52.312Z,8.60
2019-03-09T00:59:21.051Z,8.50
2019-03-09T01:01:49.863Z,8.60
2019-03-09T01:04:18.591Z,8.60
2019-03-09T01:06:47.390Z,8.60
2019-03-09T01:09:16.770Z,8.60
2019-03-09T01:11:45.663Z,8.70
2019-03-09T01:14:14.391Z,8.70
2019-03-09T01:16:43.194Z,8.60
2019-03-09T01:19:11.995Z,8.70
2019-03-09T01:21:40.717Z,8.70
2019-03-09T01:24:10.351Z,8.70
2019-03-09T01:26:39.085Z,8.80
2019-03-09T01:29:07.904Z,8.80
2019-03-09T01:31:36.693Z,8.80
2019-03-09T01:34:05.716Z,8.80
2019-03-09T01:36:34.519Z,8.70
2019-03-09T01:39:04.382Z,8.80
2019-03-09T01:41:33.101Z,8.90
2019-03-09T01:44:01.853Z,8.80
2019-03-09T01:46:30.639Z,8.80
2019-03-09T01:48:59.381Z,8.80
2019-03-09T01:51:28.142Z,8.90
2019-03-09T01:53:56.928Z,8.90
2019-03-09T01:56:25.662Z,8.80
2019-03-09T01:58:54.379Z,8.80
2019-03-09T02:01:23.116Z,8.80
2019-03-09T02:03:51.916Z,8.80
2019-03-09T02:06:20.651Z,8.80
2019-03-09T02:08:50.368Z,8.80
2019-03-09T02:11:19.372Z,8.80
2019-03-09T02:13:48.166Z,8.80
2019-03-09T02:16:16.953Z,8.90
2019-03-09T02:18:45.696Z,8.90
2019-03-09T02:21:14.414Z,8.90
2019-03-09T02:23:43.147Z,8.90
2019-03-09T02:26:11.900Z,8.90
2019-03-09T02:28:40.626Z,9.00
2019-03-09T02:31:10.206Z,9.00
2019-03-09T02:33:38.921Z,9.00
2019-03-09T02:36:07.665Z,9.10
2019-03-09T02:38:55.476Z,9.10
2019-03-09T02:41:24.205Z,9.20
2019-03-09T02:43:52.925Z,9.30
2019-03-09T02:46:23.204Z,9.40
2019-03-09T02:48:51.942Z,9.40
2019-03-09T02:51:20.648Z,9.50
2019-03-09T02:53:49.376Z,9.40
2019-03-09T02:56:18.102Z,9.40
2019-03-09T02:58:46.830Z,9.40
2019-03-09T03:01:23.298Z,9.40
2019-03-09T03:03:52.013Z,9.30
2019-03-09T03:06:20.752Z,9.30
2019-03-09T03:08:49.467Z,9.30
2019-03-09T03:11:18.215Z,9.30
2019-03-09T03:13:48.177Z,9.30
2019-03-09T03:16:16.882Z,9.30
2019-03-09T03:18:45.609Z,9.20
2019-03-09T03:21:14.341Z,9.10
2019-03-09T03:23:43.067Z,8.90
2019-03-09T03:26:11.797Z,8.70
2019-03-09T03:28:40.549Z,8.70
2019-03-09T03:31:09.283Z,8.60
2019-03-09T03:33:38.005Z,8.50
2019-03-09T03:36:07.242Z,8.50
2019-03-09T03:38:36.045Z,8.40
2019-03-09T03:41:05.051Z,8.30
2019-03-09T03:43:33.770Z,8.30
2019-03-09T03:46:02.509Z,8.20
2019-03-09T03:48:31.241Z,8.20
2019-03-09T03:50:59.958Z,8.20
2019-03-09T03:53:28.692Z,8.20
2019-03-09T03:55:57.682Z,8.20
2019-03-09T03:58:26.486Z,8.20
2019-03-09T04:00:55.344Z,8.20
2019-03-09T04:03:24.265Z,8.10
2019-03-09T04:05:53.124Z,8.00
2019-03-09T04:08:21.934Z,8.10
2019-03-09T04:10:50.797Z,8.00
2019-03-09T04:13:19.799Z,7.90
2019-03-09T04:15:48.524Z,7.90
2019-03-09T04:18:17.262Z,7.90
2019-03-09T04:20:45.984Z,7.90
2019-03-09T04:23:14.849Z,7.80
2019-03-09T04:25:43.584Z,7.90
2019-03-09T04:28:12.515Z,7.90
2019-03-09T04:30:41.235Z,7.90
2019-03-09T04:33:09.968Z,7.90
2019-03-09T04:35:38.716Z,7.90
2019-03-09T04:38:07.463Z,7.90
2019-03-09T04:40:36.201Z,7.90
2019-03-09T04:43:04.987Z,7.80
2019-03-09T04:45:33.723Z,7.80
2019-03-09T04:48:04.279Z,7.80
2019-03-09T04:50:33.035Z,7.80
2019-03-09T04:53:01.771Z,7.80
2019-03-09T04:55:30.546Z,7.80
2019-03-09T04:57:59.276Z,7.90
2019-03-09T05:00:28.058Z,7.90
2019-03-09T05:02:56.793Z,7.90
2019-03-09T05:05:25.506Z,7.90
2019-03-09T05:08:19.397Z,8.00
2019-03-09T05:10:57.804Z,8.00
2019-03-09T05:13:33.054Z,7.90
2019-03-09T05:16:01.805Z,7.90
2019-03-09T05:18:30.527Z,7.90
2019-03-09T05:20:59.237Z,7.90
2019-03-09T05:23:29.216Z,7.90
2019-03-09T05:25:57.943Z,7.90
2019-03-09T05:28:26.692Z,8.00
2019-03-09T05:30:55.404Z,8.00
2019-03-09T05:33:24.148Z,8.00
2019-03-09T05:35:52.863Z,7.90
2019-03-09T05:38:21.590Z,8.00
2019-03-09T05:40:50.352Z,8.10
2019-03-09T05:43:19.142Z,8.10
2019-03-09T05:45:47.886Z,8.20
2019-03-09T05:48:16.602Z,8.20
2019-03-09T05:50:46.239Z,8.20
2019-03-09T05:53:20.324Z,8.20
2019-03-09T05:55:49.042Z,8.30
2019-03-09T05:58:17.758Z,8.40
2019-03-09T06:00:46.496Z,8.40
2019-03-09T06:03:15.211Z,8.40
2019-03-09T06:05:46.317Z,8.40
2019-03-09T06:08:15.096Z,8.50
2019-03-09T06:10:43.836Z,8.50
2019-03-09T06:13:12.560Z,8.50
2019-03-09T06:15:41.362Z,8.50
2019-03-09T06:18:11.349Z,8.50
2019-03-09T06:20:40.087Z,8.60
2019-03-09T06:23:08.878Z,8.60
2019-03-09T06:25:38.679Z,8.70
2019-03-09T06:28:07.674Z,8.80
2019-03-09T06:30:36.399Z,8.90
2019-03-09T06:33:25.326Z,8.90
2019-03-09T06:35:57.696Z,9.00
2019-03-09T06:38:50.713Z,9.30
2019-03-09T06:41:27.902Z,9.40
2019-03-09T06:43:56.624Z,9.50
2019-03-09T06:46:25.405Z,9.70
2019-03-09T06:48:54.107Z,10.00
2019-03-09T06:51:23.240Z,10.10
2019-03-09T06:53:52.040Z,10.10
2019-03-09T06:56:20.769Z,10.10
2019-03-09T06:58:49.483Z,10.10
2019-03-09T07:01:22.314Z,10.00
2019-03-09T07:03:51.039Z,9.90
2019-03-09T07:06:19.826Z,9.70
2019-03-09T07:08:48.546Z,9.60
2019-03-09T07:11:17.281Z,9.60
2019-03-09T07:13:52.920Z,9.60
2019-03-09T07:16:16.468Z,9.60
2019-03-09T07:18:45.235Z,9.70
2019-03-09T07:21:13.981Z,9.70
2019-03-09T07:23:42.789Z,9.80
2019-03-09T07:26:11.529Z,9.80
2019-03-09T07:28:40.343Z,9.80
2019-03-09T07:31:09.072Z,9.90
2019-03-09T07:33:37.798Z,9.90
2019-03-09T07:36:08.289Z,9.90
2019-03-09T07:38:37.027Z,10.10
2019-03-09T07:41:05.757Z,10.10
2019-03-09T07:43:34.506Z,10.40
2019-03-09T07:46:03.371Z,10.50
2019-03-09T07:48:32.108Z,10.70
2019-03-09T07:51:00.818Z,11.20
2019-03-09T07:53:29.561Z,11.40
2019-03-09T07:55:58.411Z,11.30
2019-03-09T07:58:27.250Z,11.40
2019-03-09T08:00:55.987Z,11.70
2019-03-09T08:03:25.172Z,11.60
2019-03-09T08:05:54.886Z,11.90
2019-03-09T08:08:24.235Z,11.70
2019-03-09T08:10:53.115Z,11.90
2019-03-09T08:13:22.591Z,12.20
2019-03-09T08:15:52.689Z,11.90
2019-03-09T08:18:21.483Z,11.80
2019-03-09T08:20:50.357Z,11.80
2019-03-09T08:23:19.359Z,11.90
2019-03-09T08:25:48.749Z,12.10
2019-03-09T08:28:18.186Z,12.20
2019-03-09T08:30:47.168Z,12.40
2019-03-09T08:33:16.208Z,12.70
2019-03-09T08:35:45.024Z,12.80
2019-03-09T08:38:14.263Z,12.80
2019-03-09T08:40:43.523Z,12.80
2019-03-09T08:43:12.360Z,12.70
2019-03-09T08:45:41.212Z,12.80
2019-03-09T08:48:10.141Z,12.70
2019-03-09T08:50:39.126Z,12.60
2019-03-09T08:53:11.770Z,12.70
2019-03-09T08:55:45.281Z,12.70
2019-03-09T08:58:14.667Z,12.80
2019-03-09T09:00:43.548Z,12.50
2019-03-09T09:03:15.382Z,12.70
2019-03-09T09:05:46.134Z,12.70
2019-03-09T09:08:17.649Z,12.50
2019-03-09T09:10:51.203Z,12.40
2019-03-09T09:13:20.330Z,12.30
2019-03-09T09:15:55.826Z,12.20
2019-03-09T09:18:27.096Z,12.20
2019-03-09T09:20:57.663Z,12.30
2019-03-09T09:23:32.602Z,12.40
2019-03-09T09:26:12.347Z,12.00
2019-03-09T09:28:44.066Z,12.00
2019-03-09T09:31:13.634Z,12.10
2019-03-09T09:33:42.909Z,12.10
2019-03-09T09:36:13.414Z,12.10
2019-03-09T09:38:44.142Z,12.30
2019-03-09T09:41:14.359Z,12.40
2019-03-09T09:43:45.612Z,12.40
2019-03-09T09:46:21.819Z,12.50
2019-03-09T09:48:51.285Z,12.60
2019-03-09T09:51:22.406Z,12.60
2019-03-09T09:53:51.462Z,12.70
2019-03-09T09:56:24.802Z,12.70
2019-03-09T09:58:54.178Z,12.70
2019-03-09T10:01:26.976Z,12.60
2019-03-09T10:03:56.132Z,12.60
2019-03-09T10:06:27.748Z,12.60
2019-03-09T10:08:56.804Z,12.60
2019-03-09T10:11:26.170Z,12.70
2019-03-09T10:13:57.492Z,12.80
2019-03-09T10:16:26.762Z,12.90
2019-03-09T10:18:56.955Z,12.90
2019-03-09T10:21:28.663Z,13.00
2019-03-09T10:23:57.444Z,13.10
2019-03-09T10:26:26.796Z,13.00
2019-03-09T10:28:55.757Z,13.00
2019-03-09T10:31:24.495Z,13.10
2019-03-09T10:33:53.266Z,13.10
2019-03-09T10:36:22.043Z,13.10
2019-03-09T10:38:50.778Z,13.20
2019-03-09T10:41:19.572Z,13.30
2019-03-09T10:43:48.345Z,13.20
2019-03-09T10:46:22.997Z,13.20
2019-03-09T10:48:51.762Z,13.10
2019-03-09T10:51:20.510Z,13.10
2019-03-09T10:53:49.244Z,13.00
2019-03-09T10:56:17.976Z,13.00
2019-03-09T10:58:46.762Z,13.00
2019-03-09T11:01:15.567Z,12.90
2019-03-09T11:03:44.299Z,13.00
2019-03-09T11:06:13.342Z,13.00
2019-03-09T11:08:42.176Z,13.00
2019-03-09T11:11:10.921Z,13.00
2019-03-09T11:13:39.672Z,13.00
2019-03-09T11:16:08.446Z,12.90
2019-03-09T11:18:37.176Z,12.70
2019-03-09T11:21:06.458Z,12.60
2019-03-09T11:23:35.243Z,12.50
2019-03-09T11:26:04.042Z,12.40
2019-03-09T11:28:32.771Z,12.20
2019-03-09T11:31:01.518Z,12.20
2019-03-09T11:33:30.242Z,12.20
2019-03-09T11:35:58.983Z,12.20
2019-03-09T11:38:27.694Z,12.30
2019-03-09T11:41:00.645Z,12.30
2019-03-09T11:43:27.966Z,12.40
2019-03-09T11:45:56.690Z,12.40
2019-03-09T11:48:26.394Z,12.40
2019-03-09T11:50:55.122Z,12.30
2019-03-09T11:53:23.888Z,12.40
2019-03-09T11:55:52.603Z,12.50
2019-03-09T11:58:21.364Z,12.50
2019-03-09T12:00:50.088Z,12.50
2019-03-09T12:03:18.814Z,12.50
2019-03-09T12:05:47.567Z,12.50
2019-03-09T12:08:16.290Z,12.60
2019-03-09T12:10:46.128Z,12.50
2019-03-09T12:13:14.893Z,12.50
2019-03-09T12:15:43.605Z,12.50
2019-03-09T12:18:31.569Z,12.50
2019-03-09T12:21:00.312Z,12.50
2019-03-09T12:23:29.056Z,12.40
2019-03-09T12:25:59.959Z,12.40
2019-03-09T12:28:28.708Z,12.50
2019-03-09T12:30:57.440Z,12.60
2019-03-09T12:33:26.208Z,12.70
2019-03-09T12:36:14.258Z,12.60
2019-03-09T12:38:42.983Z,12.40
2019-03-09T12:41:12.340Z,12.60
2019-03-09T12:43:41.092Z,12.60
2019-03-09T12:46:09.890Z,12.60
2019-03-09T12:48:38.655Z,12.70
2019-03-09T12:51:07.354Z,12.70
2019-03-09T12:53:36.128Z,12.90
2019-03-09T12:56:04.968Z,12.90
2019-03-09T12:58:33.718Z,12.70
2019-03-09T13:01:02.532Z,12.60
2019-03-09T13:03:31.280Z,12.50
2019-03-09T13:05:59.995Z,12.40
2019-03-09T13:08:28.722Z,12.30
2019-03-09T13:10:57.470Z,12.40
2019-03-09T13:13:26.351Z,12.50
2019-03-09T13:15:55.072Z,12.50
2019-03-09T13:18:23.814Z,12.40
2019-03-09T13:20:52.579Z,12.40
2019-03-09T13:23:21.317Z,12.50
2019-03-09T13:25:50.071Z,12.50
2019-03-09T13:28:18.799Z,12.50
2019-03-09T13:30:48.568Z,12.40
2019-03-09T13:33:17.391Z,12.50
2019-03-09T13:35:46.135Z,12.60
2019-03-09T13:38:14.916Z,12.90
2019-03-09T13:40:43.697Z,12.60
2019-03-09T13:43:12.432Z,12.30
2019-03-09T13:45:41.172Z,12.30
2019-03-09T13:48:09.905Z,12.60
2019-03-09T13:50:38.641Z,14.00
2019-03-09T13:53:09.159Z,13.70
2019-03-09T13:55:37.887Z,12.80
2019-03-09T13:58:06.682Z,12.70
2019-03-09T14:00:40.430Z,12.60
2019-03-09T14:03:05.996Z,12.60
2019-03-09T14:05:34.732Z,12.50
2019-03-09T14:08:03.489Z,12.50
2019-03-09T14:10:32.318Z,12.90
2019-03-09T14:13:01.138Z,12.90
2019-03-09T14:15:29.948Z,12.90
2019-03-09T14:17:58.676Z,13.30
2019-03-09T14:20:27.414Z,13.50
2019-03-09T14:22:56.138Z,13.60
2019-03-09T14:25:24.864Z,14.30
2019-03-09T14:27:53.594Z,14.80
2019-03-09T14:30:22.343Z,14.80
2019-03-09T14:32:51.088Z,14.10
2019-03-09T14:35:19.827Z,13.50
2019-03-09T14:37:48.654Z,13.00
2019-03-09T14:40:17.547Z,12.80
2019-03-09T14:42:46.275Z,12.60
2019-03-09T14:45:16.084Z,12.50
2019-03-09T14:47:44.820Z,12.50
2019-03-09T14:50:14.273Z,12.70
2019-03-09T14:52:43.140Z,12.70
2019-03-09T14:55:12.395Z,12.70
2019-03-09T14:57:41.204Z,12.70
2019-03-09T15:00:29.185Z,12.80
2019-03-09T15:02:58.115Z,13.00
2019-03-09T15:05:26.825Z,13.10
2019-03-09T15:07:55.654Z,13.20
2019-03-09T15:10:24.390Z,13.50
2019-03-09T15:12:53.186Z,13.60
2019-03-09T15:15:22.073Z,13.60
2019-03-09T15:17:52.082Z,13.60
2019-03-09T15:20:21.286Z,13.70
2019-03-09T15:22:51.061Z,13.80
2019-03-09T15:25:20.439Z,13.80
2019-03-09T15:27:49.253Z,13.90
2019-03-09T15:30:18.332Z,14.10
2019-03-09T15:32:47.352Z,14.20
2019-03-09T15:35:17.047Z,13.90
2019-03-09T15:37:47.412Z,13.70
2019-03-09T15:40:17.586Z,13.70
2019-03-09T15:42:46.631Z,13.60
2019-03-09T15:45:15.539Z,13.50
2019-03-09T15:47:44.401Z,13.50
2019-03-09T15:50:13.580Z,13.70
2019-03-09T15:52:42.593Z,13.70
2019-03-09T15:55:12.423Z,13.60
2019-03-09T15:57:41.450Z,13.70
2019-03-09T16:00:15.331Z,13.60
2019-03-09T16:02:44.289Z,13.60
2019-03-09T16:05:13.770Z,13.60
2019-03-09T16:07:42.548Z,13.60
2019-03-09T16:10:14.707Z,13.40
2019-03-09T16:12:43.688Z,13.50
2019-03-09T16:15:13.614Z,13.40
2019-03-09T16:17:42.690Z,13.20
2019-03-09T16:20:13.499Z,13.40
2019-03-09T16:22:42.411Z,13.30
2019-03-09T16:25:12.747Z,13.20
2019-03-09T16:27:41.714Z,13.10
2019-03-09T16:30:14.476Z,13.10
2019-03-09T16:32:45.419Z,13.20
2019-03-09T16:35:14.582Z,13.20
2019-03-09T16:37:43.313Z,13.20
2019-03-09T16:40:12.406Z,13.30
2019-03-09T16:42:41.210Z,13.30
2019-03-09T16:45:10.421Z,13.20
2019-03-09T16:47:39.578Z,13.20
2019-03-09T16:50:09.184Z,13.10
2019-03-09T16:52:38.068Z,13.10
2019-03-09T16:55:07.304Z,12.90
2019-03-09T16:57:36.029Z,12.90
2019-03-09T17:00:05.553Z,12.90
2019-03-09T17:02:39.287Z,12.90
2019-03-09T17:05:08.211Z,12.80
2019-03-09T17:07:37.675Z,12.80
2019-03-09T17:10:07.925Z,12.80
2019-03-09T17:12:55.856Z,12.70
2019-03-09T17:15:26.754Z,12.70
2019-03-09T17:17:56.025Z,12.60
2019-03-09T17:20:24.869Z,12.50
2019-03-09T17:22:54.270Z,12.50
2019-03-09T17:25:23.152Z,12.40
2019-03-09T17:27:51.876Z,12.30
2019-03-09T17:30:20.780Z,12.40
2019-03-09T17:32:49.545Z,12.30
2019-03-09T17:35:27.792Z,12.30
2019-03-09T17:37:56.797Z,12.20
2019-03-09T17:40:26.015Z,12.10
2019-03-09T17:42:54.721Z,12.10
2019-03-09T17:45:23.502Z,12.10
2019-03-09T17:47:52.491Z,12.10
2019-03-09T17:50:21.297Z,12.10
2019-03-09T17:52:50.393Z,12.00
2019-03-09T17:55:19.286Z,12.00
2019-03-09T17:57:48.036Z,12.00
2019-03-09T18:00:21.632Z,12.00
2019-03-09T18:02:50.439Z,12.00
2019-03-09T18:05:19.951Z,12.10
2019-03-09T18:07:48.974Z,12.10
2019-03-09T18:10:22.497Z,12.00
2019-03-09T18:12:52.276Z,12.00
2019-03-09T18:15:21.102Z,12.00
2019-03-09T18:17:49.848Z,12.00
2019-03-09T18:20:18.644Z,12.10
2019-03-09T18:22:47.482Z,12.10
2019-03-09T18:25:16.216Z,12.20
2019-03-09T18:27:44.946Z,12.20
2019-03-09T18:30:13.802Z,12.10
2019-03-09T18:32:42.557Z,12.20
2019-03-09T18:35:11.452Z,12.20
2019-03-09T18:37:40.324Z,12.20
2019-03-09T18:40:10.096Z,12.20
2019-03-09T18:42:38.815Z,12.20
2019-03-09T18:45:10.408Z,12.20
2019-03-09T18:47:39.583Z,12.20
2019-03-09T18:50:08.699Z,12.30
2019-03-09T18:52:37.494Z,12.30
2019-03-09T18:55:06.512Z,12.30
2019-03-09T18:57:35.273Z,12.30
2019-03-09T19:00:06.519Z,12.20
2019-03-09T19:02:35.572Z,12.20
2019-03-09T19:05:04.734Z,12.10
2019-03-09T19:07:37.158Z,12.10
2019-03-09T19:10:15.898Z,12.10
2019-03-09T19:12:45.174Z,12.00
2019-03-09T19:15:18.417Z,11.90
2019-03-09T19:17:47.516Z,11.80
2019-03-09T19:20:16.628Z,11.80
2019-03-09T19:22:45.827Z,11.90
2019-03-09T19:25:15.222Z,11.90
2019-03-09T19:27:44.163Z,12.00
2019-03-09T19:30:15.164Z,12.10
2019-03-09T19:32:46.036Z,12.10
2019-03-09T19:35:15.187Z,12.10
2019-03-09T19:37:44.505Z,12.10
2019-03-09T19:40:14.427Z,12.10
2019-03-09T19:42:44.315Z,12.10
2019-03-09T19:45:32.576Z,12.20
2019-03-09T19:48:02.954Z,12.20
2019-03-09T19:50:31.922Z,12.10
2019-03-09T19:53:01.217Z,12.10
2019-03-09T19:55:33.066Z,12.20
2019-03-09T19:58:02.150Z,12.10
2019-03-09T20:00:30.954Z,12.20
2019-03-09T20:03:00.784Z,12.20
2019-03-09T20:05:29.932Z,12.20
2019-03-09T20:07:58.867Z,12.20
2019-03-09T20:10:27.956Z,12.10
2019-03-09T20:12:56.812Z,12.20
2019-03-09T20:15:25.694Z,12.10
2019-03-09T20:17:55.926Z,12.00
2019-03-09T20:20:25.329Z,11.90
2019-03-09T20:22:55.480Z,11.80
2019-03-09T20:25:24.467Z,11.90
2019-03-09T20:27:53.936Z,11.80
2019-03-09T20:30:23.192Z,11.90
2019-03-09T20:32:52.190Z,11.80
2019-03-09T20:35:21.500Z,11.80
2019-03-09T20:37:56.380Z,11.70
2019-03-09T20:40:28.751Z,11.70
2019-03-09T20:43:05.854Z,11.70
2019-03-09T20:45:38.242Z,11.70
2019-03-09T20:48:11.498Z,11.60
2019-03-09T20:50:42.141Z,11.70
2019-03-09T20:53:12.664Z,11.90
2019-03-09T20:55:41.634Z,11.80
2019-03-09T20:58:10.436Z,11.80
2019-03-09T21:00:39.192Z,11.90
2019-03-09T21:03:27.180Z,11.80
2019-03-09T21:05:57.062Z,11.80
2019-03-09T21:08:25.929Z,11.80
2019-03-09T21:11:03.378Z,11.70
2019-03-09T21:13:25.660Z,11.70
2019-03-09T21:15:54.593Z,11.70
2019-03-09T21:18:23.710Z,11.70
2019-03-09T21:20:52.453Z,11.60
2019-03-09T21:23:21.170Z,11.70
2019-03-09T21:25:49.913Z,11.70
2019-03-09T21:28:18.793Z,11.70
2019-03-09T21:30:47.518Z,11.70
2019-03-09T21:33:16.271Z,11.70
2019-03-09T21:35:45.002Z,11.60
2019-03-09T21:38:13.773Z,11.60
2019-03-09T21:40:42.571Z,11.60
2019-03-09T21:43:11.388Z,11.60
2019-03-09T21:45:40.149Z,11.60
2019-03-09T21:48:08.939Z,11.50
2019-03-09T21:50:38.060Z,11.50
2019-03-09T21:53:06.969Z,11.60
2019-03-09T21:55:35.991Z,11.60
2019-03-09T21:58:04.978Z,11.50
2019-03-09T22:00:33.864Z,11.60
2019-03-09T22:03:02.707Z,11.60
2019-03-09T22:05:32.152Z,11.50
2019-03-09T22:08:03.139Z,11.60
2019-03-09T22:10:41.941Z,11.60
2019-03-09T22:13:10.970Z,11.60
2019-03-09T22:15:40.773Z,11.50
2019-03-09T22:18:09.689Z,11.60
2019-03-09T22:20:58.545Z,11.60
2019-03-09T22:23:30.387Z,11.50
2019-03-09T22:25:59.247Z,11.60
2019-03-09T22:28:30.402Z,11.60
2019-03-09T22:30:59.288Z,11.50
2019-03-09T22:33:28.800Z,11.50
2019-03-09T22:35:58.555Z,11.50
2019-03-09T22:38:27.737Z,11.40
2019-03-09T22:40:56.674Z,11.50
2019-03-09T22:43:29.294Z,11.40
2019-03-09T22:45:58.035Z,11.40
2019-03-09T22:48:26.790Z,11.40
2019-03-09T22:50:59.999Z,11.40
2019-03-09T22:53:28.996Z,11.40
2019-03-09T22:55:59.896Z,11.30
2019-03-09T22:58:29.123Z,11.30
2019-03-09T23:00:58.535Z,11.40
2019-03-09T23:03:27.306Z,11.30
2019-03-09T23:05:56.627Z,11.30
2019-03-09T23:08:25.741Z,11.30
2019-03-09T23:10:54.817Z,11.20
2019-03-09T23:13:23.704Z,11.30
2019-03-09T23:15:52.964Z,11.20
2019-03-09T23:18:21.696Z,11.20
2019-03-09T23:20:50.717Z,11.20
2019-03-09T23:23:19.851Z,11.20
2019-03-09T23:25:48.716Z,11.20
2019-03-09T23:28:17.633Z,11.20
2019-03-09T23:30:46.456Z,11.20
2019-03-09T23:33:15.770Z,11.20
2019-03-09T23:35:45.357Z,11.20
2019-03-09T23:38:14.107Z,11.20
2019-03-09T23:40:43.196Z,11.20
2019-03-09T23:43:12.004Z,11.10
2019-03-09T23:45:40.815Z,11.10
2019-03-09T23:48:09.634Z,11.00
2019-03-09T23:50:38.355Z,11.00
2019-03-09T23:53:07.182Z,11.00
2019-03-09T23:55:35.912Z,11.00
2019-03-09T23:58:05.350Z,10.90
